sensor_id;sensor_type;location;lat;lon;timestamp;temperature;humidity
27258;DHT22;62045;49.986;8.672;2023-02-03T00:02:15;17.00;52.50
27258;DHT22;62045;49.986;8.672;2023-02-03T00:07:17;16.90;52.70
27258;DHT22;62045;49.986;8.672;2023-02-03T00:12:18;16.80;52.80
27258;DHT22;62045;49.986;8.672;2023-02-03T00:17:19;16.70;52.90
27258;DHT22;62045;49.986;8.672;2023-02-03T00:22:21;16.70;53.10
27258;DHT22;62045;49.986;8.672;2023-02-03T00:27:22;16.70;53.10
27258;DHT22;62045;49.986;8.672;2023-02-03T00:32:22;16.70;53.10
27258;DHT22;62045;49.986;8.672;2023-02-03T00:37:24;16.80;52.90
27258;DHT22;62045;49.986;8.672;2023-02-03T00:42:25;16.80;52.80
27258;DHT22;62045;49.986;8.672;2023-02-03T00:47:26;16.90;52.70
27258;DHT22;62045;49.986;8.672;2023-02-03T00:52:28;16.90;52.60
27258;DHT22;62045;49.986;8.672;2023-02-03T00:57:29;16.90;52.70
27258;DHT22;62045;49.986;8.672;2023-02-03T01:02:30;16.80;52.70
27258;DHT22;62045;49.986;8.672;2023-02-03T01:07:32;16.80;52.80
27258;DHT22;62045;49.986;8.672;2023-02-03T01:12:33;16.70;52.80
27258;DHT22;62045;49.986;8.672;2023-02-03T01:17:33;16.70;53.00
27258;DHT22;62045;49.986;8.672;2023-02-03T01:22:35;16.60;53.00
27258;DHT22;62045;49.986;8.672;2023-02-03T01:27:36;16.60;53.10
27258;DHT22;62045;49.986;8.672;2023-02-03T01:32:37;16.60;53.00
27258;DHT22;62045;49.986;8.672;2023-02-03T01:37:39;16.70;53.00
27258;DHT22;62045;49.986;8.672;2023-02-03T01:42:40;16.80;52.90
27258;DHT22;62045;49.986;8.672;2023-02-03T01:47:45;16.80;52.70
27258;DHT22;62045;49.986;8.672;2023-02-03T01:52:51;16.80;52.70
27258;DHT22;62045;49.986;8.672;2023-02-03T01:57:56;16.80;52.70
27258;DHT22;62045;49.986;8.672;2023-02-03T02:03:01;16.80;52.70
27258;DHT22;62045;49.986;8.672;2023-02-03T02:08:05;16.70;52.80
27258;DHT22;62045;49.986;8.672;2023-02-03T02:13:07;16.70;52.90
27258;DHT22;62045;49.986;8.672;2023-02-03T02:18:27;16.60;52.90
27258;DHT22;62045;49.986;8.672;2023-02-03T02:29:55;16.60;53.10
27258;DHT22;62045;49.986;8.672;2023-02-03T02:35:03;16.60;53.00
27258;DHT22;62045;49.986;8.672;2023-02-03T02:40:22;16.70;52.90
27258;DHT22;62045;49.986;8.672;2023-02-03T02:45:25;16.80;52.80
27258;DHT22;62045;49.986;8.672;2023-02-03T02:50:32;16.80;52.70
27258;DHT22;62045;49.986;8.672;2023-02-03T02:55:36;16.80;52.70
27258;DHT22;62045;49.986;8.672;2023-02-03T03:00:42;16.80;52.80
27258;DHT22;62045;49.986;8.672;2023-02-03T03:05:49;16.80;52.80
27258;DHT22;62045;49.986;8.672;2023-02-03T03:10:55;16.70;52.80
27258;DHT22;62045;49.986;8.672;2023-02-03T03:15:57;16.70;53.00
27258;DHT22;62045;49.986;8.672;2023-02-03T03:21:02;16.70;53.10
27258;DHT22;62045;49.986;8.672;2023-02-03T03:26:09;16.70;53.10
27258;DHT22;62045;49.986;8.672;2023-02-03T03:31:12;16.70;53.10
27258;DHT22;62045;49.986;8.672;2023-02-03T03:36:19;16.70;53.00
27258;DHT22;62045;49.986;8.672;2023-02-03T03:41:26;16.80;52.90
27258;DHT22;62045;49.986;8.672;2023-02-03T03:46:32;16.90;52.70
27258;DHT22;62045;49.986;8.672;2023-02-03T03:51:38;16.90;52.70
27258;DHT22;62045;49.986;8.672;2023-02-03T03:56:43;16.90;52.70
27258;DHT22;62045;49.986;8.672;2023-02-03T04:01:45;16.80;52.70
27258;DHT22;62045;49.986;8.672;2023-02-03T04:06:47;16.80;52.80
27258;DHT22;62045;49.986;8.672;2023-02-03T04:11:48;16.70;52.90
27258;DHT22;62045;49.986;8.672;2023-02-03T04:16:49;16.70;53.00
27258;DHT22;62045;49.986;8.672;2023-02-03T04:21:51;16.60;53.10
27258;DHT22;62045;49.986;8.672;2023-02-03T04:26:52;16.60;53.20
27258;DHT22;62045;49.986;8.672;2023-02-03T04:31:53;16.60;53.10
27258;DHT22;62045;49.986;8.672;2023-02-03T04:36:55;16.70;53.10
27258;DHT22;62045;49.986;8.672;2023-02-03T04:41:55;16.70;52.90
27258;DHT22;62045;49.986;8.672;2023-02-03T04:46:56;16.80;52.80
27258;DHT22;62045;49.986;8.672;2023-02-03T04:51:58;16.80;52.70
27258;DHT22;62045;49.986;8.672;2023-02-03T04:56:59;16.80;52.60
27258;DHT22;62045;49.986;8.672;2023-02-03T05:02:01;16.80;52.70
27258;DHT22;62045;49.986;8.672;2023-02-03T05:07:03;16.80;52.70
27258;DHT22;62045;49.986;8.672;2023-02-03T05:12:04;16.70;52.80
27258;DHT22;62045;49.986;8.672;2023-02-03T05:17:05;16.70;52.90
27258;DHT22;62045;49.986;8.672;2023-02-03T05:22:07;16.60;52.90
27258;DHT22;62045;49.986;8.672;2023-02-03T05:27:07;16.50;53.00
27258;DHT22;62045;49.986;8.672;2023-02-03T05:32:08;16.50;53.10
27258;DHT22;62045;49.986;8.672;2023-02-03T05:37:10;16.60;53.00
27258;DHT22;62045;49.986;8.672;2023-02-03T05:42:11;16.80;52.90
27258;DHT22;62045;49.986;8.672;2023-02-03T05:47:12;16.90;52.60
27258;DHT22;62045;49.986;8.672;2023-02-03T05:52:14;16.90;52.40
27258;DHT22;62045;49.986;8.672;2023-02-03T05:57:14;17.00;52.30
27258;DHT22;62045;49.986;8.672;2023-02-03T06:02:15;17.00;52.40
27258;DHT22;62045;49.986;8.672;2023-02-03T06:07:17;16.90;52.40
27258;DHT22;62045;49.986;8.672;2023-02-03T06:12:18;16.90;52.50
27258;DHT22;62045;49.986;8.672;2023-02-03T06:17:18;16.80;52.50
27258;DHT22;62045;49.986;8.672;2023-02-03T06:22:20;16.80;52.70
27258;DHT22;62045;49.986;8.672;2023-02-03T06:27:21;16.70;52.80
27258;DHT22;62045;49.986;8.672;2023-02-03T06:32:22;16.70;52.90
27258;DHT22;62045;49.986;8.672;2023-02-03T06:37:24;16.70;52.90
27258;DHT22;62045;49.986;8.672;2023-02-03T06:42:25;16.80;52.90
27258;DHT22;62045;49.986;8.672;2023-02-03T06:47:25;16.90;52.60
27258;DHT22;62045;49.986;8.672;2023-02-03T06:52:27;17.00;52.50
27258;DHT22;62045;49.986;8.672;2023-02-03T06:57:28;17.10;52.40
27258;DHT22;62045;49.986;8.672;2023-02-03T07:02:29;17.10;52.40
27258;DHT22;62045;49.986;8.672;2023-02-03T07:07:31;17.10;52.40
27258;DHT22;62045;49.986;8.672;2023-02-03T07:12:31;17.00;52.50
27258;DHT22;62045;49.986;8.672;2023-02-03T07:17:32;16.90;52.50
27258;DHT22;62045;49.986;8.672;2023-02-03T07:22:34;16.80;52.60
27258;DHT22;62045;49.986;8.672;2023-02-03T07:27:35;16.80;52.80
27258;DHT22;62045;49.986;8.672;2023-02-03T07:32:36;16.70;52.90
27258;DHT22;62045;49.986;8.672;2023-02-03T07:37:38;16.70;53.00
27258;DHT22;62045;49.986;8.672;2023-02-03T07:42:40;16.70;53.00
27258;DHT22;62045;49.986;8.672;2023-02-03T07:47:42;16.80;52.90
27258;DHT22;62045;49.986;8.672;2023-02-03T07:52:44;16.90;52.80
27258;DHT22;62045;49.986;8.672;2023-02-03T07:57:45;17.00;52.50
27258;DHT22;62045;49.986;8.672;2023-02-03T08:02:46;17.00;52.40
27258;DHT22;62045;49.986;8.672;2023-02-03T08:07:48;17.00;52.40
27258;DHT22;62045;49.986;8.672;2023-02-03T08:12:51;17.00;52.40
27258;DHT22;62045;49.986;8.672;2023-02-03T08:17:52;16.90;52.50
27258;DHT22;62045;49.986;8.672;2023-02-03T08:22:54;16.90;52.50
27258;DHT22;62045;49.986;8.672;2023-02-03T08:27:55;16.80;52.70
27258;DHT22;62045;49.986;8.672;2023-02-03T08:32:56;16.80;52.80
27258;DHT22;62045;49.986;8.672;2023-02-03T08:37:58;16.70;52.90
27258;DHT22;62045;49.986;8.672;2023-02-03T08:42:59;16.60;52.90
27258;DHT22;62045;49.986;8.672;2023-02-03T08:48:00;16.60;53.00
27258;DHT22;62045;49.986;8.672;2023-02-03T08:53:02;16.70;53.60
27258;DHT22;62045;49.986;8.672;2023-02-03T08:58:03;16.90;54.60
27258;DHT22;62045;49.986;8.672;2023-02-03T09:03:03;17.00;54.10
27258;DHT22;62045;49.986;8.672;2023-02-03T09:08:05;17.10;54.10
27258;DHT22;62045;49.986;8.672;2023-02-03T09:13:06;17.10;53.80
27258;DHT22;62045;49.986;8.672;2023-02-03T09:18:07;17.10;53.70
27258;DHT22;62045;49.986;8.672;2023-02-03T09:23:09;17.10;53.80
27258;DHT22;62045;49.986;8.672;2023-02-03T09:28:10;17.10;53.80
27258;DHT22;62045;49.986;8.672;2023-02-03T09:33:10;17.00;53.90
27258;DHT22;62045;49.986;8.672;2023-02-03T09:38:12;17.00;53.90
27258;DHT22;62045;49.986;8.672;2023-02-03T09:43:28;16.90;53.80
27258;DHT22;62045;49.986;8.672;2023-02-03T09:48:35;16.90;53.90
27258;DHT22;62045;49.986;8.672;2023-02-03T09:53:43;16.90;54.00
27258;DHT22;62045;49.986;8.672;2023-02-03T09:58:45;16.90;54.30
27258;DHT22;62045;49.986;8.672;2023-02-03T10:03:50;16.90;54.40
27258;DHT22;62045;49.986;8.672;2023-02-03T10:09:03;16.90;54.50
27258;DHT22;62045;49.986;8.672;2023-02-03T10:14:17;17.00;54.40
27258;DHT22;62045;49.986;8.672;2023-02-03T10:19:24;17.00;54.20
27258;DHT22;62045;49.986;8.672;2023-02-03T10:24:37;17.10;54.10
27258;DHT22;62045;49.986;8.672;2023-02-03T10:29:41;17.10;54.00
27258;DHT22;62045;49.986;8.672;2023-02-03T10:34:44;17.00;53.90
27258;DHT22;62045;49.986;8.672;2023-02-03T10:39:47;17.00;53.90
27258;DHT22;62045;49.986;8.672;2023-02-03T10:44:51;17.00;54.00
27258;DHT22;62045;49.986;8.672;2023-02-03T10:49:56;16.90;54.00
27258;DHT22;62045;49.986;8.672;2023-02-03T10:54:59;16.80;54.10
27258;DHT22;62045;49.986;8.672;2023-02-03T11:00:20;16.80;54.20
27258;DHT22;62045;49.986;8.672;2023-02-03T11:05:22;16.70;54.30
27258;DHT22;62045;49.986;8.672;2023-02-03T11:10:29;16.70;54.50
27258;DHT22;62045;49.986;8.672;2023-02-03T11:15:30;16.70;54.40
27258;DHT22;62045;49.986;8.672;2023-02-03T11:20:35;16.80;54.30
27258;DHT22;62045;49.986;8.672;2023-02-03T11:25:37;16.90;54.10
27258;DHT22;62045;49.986;8.672;2023-02-03T11:30:38;17.00;53.90
27258;DHT22;62045;49.986;8.672;2023-02-03T11:35:38;17.00;53.70
27258;DHT22;62045;49.986;8.672;2023-02-03T11:40:41;17.00;53.70
27258;DHT22;62045;49.986;8.672;2023-02-03T11:45:44;17.00;53.70
27258;DHT22;62045;49.986;8.672;2023-02-03T11:50:49;16.90;53.80
27258;DHT22;62045;49.986;8.672;2023-02-03T11:56:19;16.90;53.80
27258;DHT22;62045;49.986;8.672;2023-02-03T12:01:45;16.80;53.90
27258;DHT22;62045;49.986;8.672;2023-02-03T12:12:43;16.70;54.10
27258;DHT22;62045;49.986;8.672;2023-02-03T12:18:03;16.70;54.20
27258;DHT22;62045;49.986;8.672;2023-02-03T12:23:16;16.70;54.30
27258;DHT22;62045;49.986;8.672;2023-02-03T12:28:38;16.80;54.20
27258;DHT22;62045;49.986;8.672;2023-02-03T12:33:46;16.90;53.90
27258;DHT22;62045;49.986;8.672;2023-02-03T12:38:51;17.00;53.70
27258;DHT22;62045;49.986;8.672;2023-02-03T12:43:59;17.00;53.60
27258;DHT22;62045;49.986;8.672;2023-02-03T12:49:08;17.00;53.60
27258;DHT22;62045;49.986;8.672;2023-02-03T12:54:28;17.00;53.60
27258;DHT22;62045;49.986;8.672;2023-02-03T12:59:34;17.00;53.70
27258;DHT22;62045;49.986;8.672;2023-02-03T13:04:40;17.00;53.80
27258;DHT22;62045;49.986;8.672;2023-02-03T13:09:48;16.90;53.80
27258;DHT22;62045;49.986;8.672;2023-02-03T13:14:57;16.80;53.90
27258;DHT22;62045;49.986;8.672;2023-02-03T13:20:03;16.80;54.00
27258;DHT22;62045;49.986;8.672;2023-02-03T13:25:08;16.70;54.10
27258;DHT22;62045;49.986;8.672;2023-02-03T13:30:30;16.70;54.20
27258;DHT22;62045;49.986;8.672;2023-02-03T13:35:44;16.70;54.10
27258;DHT22;62045;49.986;8.672;2023-02-03T13:40:55;16.70;54.10
27258;DHT22;62045;49.986;8.672;2023-02-03T13:45:58;16.70;54.10
27258;DHT22;62045;49.986;8.672;2023-02-03T13:51:06;16.70;54.10
27258;DHT22;62045;49.986;8.672;2023-02-03T13:56:15;16.70;54.10
27258;DHT22;62045;49.986;8.672;2023-02-03T14:01:31;16.70;54.10
27258;DHT22;62045;49.986;8.672;2023-02-03T14:06:57;16.70;54.00
27258;DHT22;62045;49.986;8.672;2023-02-03T14:12:16;16.70;54.00
27258;DHT22;62045;49.986;8.672;2023-02-03T14:23:11;16.70;54.00
27258;DHT22;62045;49.986;8.672;2023-02-03T14:28:15;16.60;54.40
27258;DHT22;62045;49.986;8.672;2023-02-03T14:33:16;16.60;54.40
27258;DHT22;62045;49.986;8.672;2023-02-03T14:38:18;16.60;54.50
27258;DHT22;62045;49.986;8.672;2023-02-03T14:43:26;16.60;54.50
27258;DHT22;62045;49.986;8.672;2023-02-03T14:48:41;16.60;54.40
27258;DHT22;62045;49.986;8.672;2023-02-03T14:54:08;16.60;54.40
27258;DHT22;62045;49.986;8.672;2023-02-03T14:59:14;16.60;54.30
27258;DHT22;62045;49.986;8.672;2023-02-03T15:04:22;16.70;54.30
27258;DHT22;62045;49.986;8.672;2023-02-03T15:09:30;16.70;54.50
27258;DHT22;62045;49.986;8.672;2023-02-03T15:14:32;16.70;54.60
27258;DHT22;62045;49.986;8.672;2023-02-03T15:19:34;16.70;54.80
27258;DHT22;62045;49.986;8.672;2023-02-03T15:24:37;16.70;55.10
27258;DHT22;62045;49.986;8.672;2023-02-03T15:29:37;16.70;55.00
27258;DHT22;62045;49.986;8.672;2023-02-03T15:34:41;16.70;57.40
27258;DHT22;62045;49.986;8.672;2023-02-03T15:39:54;16.80;56.50
27258;DHT22;62045;49.986;8.672;2023-02-03T15:44:58;16.80;56.30
27258;DHT22;62045;49.986;8.672;2023-02-03T15:50:21;16.80;56.20
27258;DHT22;62045;49.986;8.672;2023-02-03T15:55:31;16.80;56.00
27258;DHT22;62045;49.986;8.672;2023-02-03T16:00:36;16.70;55.90
27258;DHT22;62045;49.986;8.672;2023-02-03T16:05:38;16.70;55.80
27258;DHT22;62045;49.986;8.672;2023-02-03T16:10:40;16.70;55.80
27258;DHT22;62045;49.986;8.672;2023-02-03T16:15:40;16.70;55.90
27258;DHT22;62045;49.986;8.672;2023-02-03T16:20:47;16.70;55.80
27258;DHT22;62045;49.986;8.672;2023-02-03T16:26:16;16.70;55.80
27258;DHT22;62045;49.986;8.672;2023-02-03T16:31:18;16.70;55.80
27258;DHT22;62045;49.986;8.672;2023-02-03T16:36:19;16.70;55.70
27258;DHT22;62045;49.986;8.672;2023-02-03T16:41:21;16.70;55.70
27258;DHT22;62045;49.986;8.672;2023-02-03T16:46:22;16.60;55.70
27258;DHT22;62045;49.986;8.672;2023-02-03T16:51:23;16.60;55.60
27258;DHT22;62045;49.986;8.672;2023-02-03T16:56:25;16.60;55.70
27258;DHT22;62045;49.986;8.672;2023-02-03T17:01:26;16.50;55.70
27258;DHT22;62045;49.986;8.672;2023-02-03T17:06:27;16.50;55.80
27258;DHT22;62045;49.986;8.672;2023-02-03T17:11:29;16.60;55.80
27258;DHT22;62045;49.986;8.672;2023-02-03T17:16:30;16.60;55.60
27258;DHT22;62045;49.986;8.672;2023-02-03T17:21:30;16.70;55.50
27258;DHT22;62045;49.986;8.672;2023-02-03T17:26:32;16.70;55.50
27258;DHT22;62045;49.986;8.672;2023-02-03T17:31:33;16.70;55.50
27258;DHT22;62045;49.986;8.672;2023-02-03T17:36:34;16.70;55.40
27258;DHT22;62045;49.986;8.672;2023-02-03T17:41:36;16.70;56.10
27258;DHT22;62045;49.986;8.672;2023-02-03T17:46:37;16.60;55.50
27258;DHT22;62045;49.986;8.672;2023-02-03T17:51:37;16.60;55.50
27258;DHT22;62045;49.986;8.672;2023-02-03T17:56:39;16.60;55.60
27258;DHT22;62045;49.986;8.672;2023-02-03T18:01:41;16.60;55.70
27258;DHT22;62045;49.986;8.672;2023-02-03T18:06:41;16.60;55.70
27258;DHT22;62045;49.986;8.672;2023-02-03T18:11:43;16.60;55.50
27258;DHT22;62045;49.986;8.672;2023-02-03T18:16:44;16.80;55.40
27258;DHT22;62045;49.986;8.672;2023-02-03T18:21:45;16.80;55.30
27258;DHT22;62045;49.986;8.672;2023-02-03T18:26:49;16.90;55.20
27258;DHT22;62045;49.986;8.672;2023-02-03T18:31:50;16.90;55.10
27258;DHT22;62045;49.986;8.672;2023-02-03T18:36:51;16.90;55.10
27258;DHT22;62045;49.986;8.672;2023-02-03T18:41:53;16.90;55.10
27258;DHT22;62045;49.986;8.672;2023-02-03T18:46:54;16.80;55.10
27258;DHT22;62045;49.986;8.672;2023-02-03T18:51:54;16.80;55.20
27258;DHT22;62045;49.986;8.672;2023-02-03T18:56:57;16.70;55.30
27258;DHT22;62045;49.986;8.672;2023-02-03T19:01:57;16.70;56.40
27258;DHT22;62045;49.986;8.672;2023-02-03T19:06:58;16.70;57.20
27258;DHT22;62045;49.986;8.672;2023-02-03T19:12:00;16.80;58.60
27258;DHT22;62045;49.986;8.672;2023-02-03T19:17:02;16.80;58.60
27258;DHT22;62045;49.986;8.672;2023-02-03T19:22:02;16.90;58.40
27258;DHT22;62045;49.986;8.672;2023-02-03T19:27:04;16.90;58.10
27258;DHT22;62045;49.986;8.672;2023-02-03T19:32:05;16.90;57.90
27258;DHT22;62045;49.986;8.672;2023-02-03T19:37:06;16.90;57.80
27258;DHT22;62045;49.986;8.672;2023-02-03T19:42:09;16.80;57.80
27258;DHT22;62045;49.986;8.672;2023-02-03T19:47:09;16.80;57.70
27258;DHT22;62045;49.986;8.672;2023-02-03T19:52:10;16.70;57.70
27258;DHT22;62045;49.986;8.672;2023-02-03T19:57:12;16.70;57.70
27258;DHT22;62045;49.986;8.672;2023-02-03T20:02:13;16.70;57.80
27258;DHT22;62045;49.986;8.672;2023-02-03T20:07:14;16.70;57.80
27258;DHT22;62045;49.986;8.672;2023-02-03T20:12:16;16.70;57.70
27258;DHT22;62045;49.986;8.672;2023-02-03T20:17:17;16.80;57.50
27258;DHT22;62045;49.986;8.672;2023-02-03T20:22:18;16.90;57.20
27258;DHT22;62045;49.986;8.672;2023-02-03T20:27:20;16.90;57.10
27258;DHT22;62045;49.986;8.672;2023-02-03T20:32:20;16.90;57.00
27258;DHT22;62045;49.986;8.672;2023-02-03T20:37:21;16.90;56.90
27258;DHT22;62045;49.986;8.672;2023-02-03T20:42:23;16.90;57.00
27258;DHT22;62045;49.986;8.672;2023-02-03T20:47:25;16.80;57.10
27258;DHT22;62045;49.986;8.672;2023-02-03T20:52:25;16.80;57.10
27258;DHT22;62045;49.986;8.672;2023-02-03T20:57:27;16.80;57.00
27258;DHT22;62045;49.986;8.672;2023-02-03T21:02:28;16.80;57.00
27258;DHT22;62045;49.986;8.672;2023-02-03T21:07:29;16.80;57.00
27258;DHT22;62045;49.986;8.672;2023-02-03T21:12:31;16.80;57.10
27258;DHT22;62045;49.986;8.672;2023-02-03T21:17:34;16.80;57.10
27258;DHT22;62045;49.986;8.672;2023-02-03T21:22:35;16.90;57.00
27258;DHT22;62045;49.986;8.672;2023-02-03T21:27:37;16.80;56.90
27258;DHT22;62045;49.986;8.672;2023-02-03T21:32:39;16.90;57.00
27258;DHT22;62045;49.986;8.672;2023-02-03T21:37:40;16.80;56.90
27258;DHT22;62045;49.986;8.672;2023-02-03T21:42:42;16.80;57.00
27258;DHT22;62045;49.986;8.672;2023-02-03T21:47:45;16.70;57.00
27258;DHT22;62045;49.986;8.672;2023-02-03T21:52:46;16.70;57.00
27258;DHT22;62045;49.986;8.672;2023-02-03T21:57:48;16.70;57.10
27258;DHT22;62045;49.986;8.672;2023-02-03T22:02:54;16.60;57.10
27258;DHT22;62045;49.986;8.672;2023-02-03T22:07:56;16.60;57.10
27258;DHT22;62045;49.986;8.672;2023-02-03T22:12:58;16.60;57.10
27258;DHT22;62045;49.986;8.672;2023-02-03T22:17:58;16.50;57.10
27258;DHT22;62045;49.986;8.672;2023-02-03T22:22:59;16.50;57.10
27258;DHT22;62045;49.986;8.672;2023-02-03T22:28:01;16.50;57.70
27258;DHT22;62045;49.986;8.672;2023-02-03T22:33:02;16.40;57.20
27258;DHT22;62045;49.986;8.672;2023-02-03T22:38:02;16.50;57.20
27258;DHT22;62045;49.986;8.672;2023-02-03T22:43:05;16.40;57.20
27258;DHT22;62045;49.986;8.672;2023-02-03T22:48:05;16.40;57.30
27258;DHT22;62045;49.986;8.672;2023-02-03T22:53:06;16.40;57.30
27258;DHT22;62045;49.986;8.672;2023-02-03T22:58:08;16.30;57.20
27258;DHT22;62045;49.986;8.672;2023-02-03T23:03:09;16.30;57.20
27258;DHT22;62045;49.986;8.672;2023-02-03T23:08:09;16.30;57.40
27258;DHT22;62045;49.986;8.672;2023-02-03T23:13:11;16.30;57.30
27258;DHT22;62045;49.986;8.672;2023-02-03T23:18:12;16.40;57.20
27258;DHT22;62045;49.986;8.672;2023-02-03T23:23:13;16.50;57.10
27258;DHT22;62045;49.986;8.672;2023-02-03T23:28:15;16.70;56.80
27258;DHT22;62045;49.986;8.672;2023-02-03T23:33:16;16.80;56.50
27258;DHT22;62045;49.986;8.672;2023-02-03T23:38:16;16.90;56.20
27258;DHT22;62045;49.986;8.672;2023-02-03T23:43:19;17.00;56.10
27258;DHT22;62045;49.986;8.672;2023-02-03T23:48:19;17.10;56.00
27258;DHT22;62045;49.986;8.672;2023-02-03T23:53:20;17.10;55.90
27258;DHT22;62045;49.986;8.672;2023-02-03T23:58:22;17.10;56.00
